createdAt,value
2023-04-15T00:02:26.080Z,101118.84
2023-04-15T00:07:29.911Z,101117.81
2023-04-15T00:12:35.184Z,101128.94
2023-04-15T00:17:38.043Z,101123.81
2023-04-15T00:22:41.765Z,101126.25
2023-04-15T00:27:47.090Z,101120.78
2023-04-15T00:32:50.033Z,101128.88
2023-04-15T00:37:53.781Z,101127.03
2023-04-15T00:42:59.046Z,101127.41
2023-04-15T00:48:03.226Z,101131.78
2023-04-15T00:53:06.983Z,101135.94
2023-04-15T00:58:12.366Z,101141.47
2023-04-15T01:03:15.416Z,101140.44
2023-04-15T01:08:19.265Z,101145.56
2023-04-15T01:13:25.291Z,101155.53
2023-04-15T01:18:29.820Z,101151.03
2023-04-15T01:23:33.734Z,101142.78
2023-04-15T01:28:39.108Z,101162.56
2023-04-15T01:33:42.321Z,101160.31
2023-04-15T01:38:46.042Z,101165.19
2023-04-15T01:43:51.244Z,101158.16
2023-04-15T01:48:54.922Z,101172.75
2023-04-15T01:53:58.553Z,101174.53
2023-04-15T01:59:03.865Z,101177.56
2023-04-15T02:04:07.765Z,101184.41
2023-04-15T02:09:11.568Z,101200.25
2023-04-15T02:14:16.841Z,101203.25
2023-04-15T02:19:20.514Z,101224.41
2023-04-15T02:24:24.213Z,101219.03
2023-04-15T02:29:30.215Z,101227.88
2023-04-15T02:34:33.842Z,101230.31
2023-04-15T02:39:37.473Z,101235.69
2023-04-15T02:44:43.701Z,101236.81
2023-04-15T02:49:47.310Z,101249.56
2023-04-15T02:54:50.952Z,101266.56
2023-04-15T02:59:56.277Z,101259.38
2023-04-15T03:04:59.872Z,101273.84
2023-04-15T03:10:03.578Z,101279.69
2023-04-15T03:15:10.823Z,101286.09
2023-04-15T03:20:14.731Z,101286.50
2023-04-15T03:25:19.146Z,101298.03
2023-04-15T03:30:24.639Z,101302.88
2023-04-15T03:35:28.304Z,101317.22
2023-04-15T03:40:31.966Z,101326.25
2023-04-15T03:45:37.203Z,101336.75
2023-04-15T03:50:41.056Z,101344.97
2023-04-15T03:55:44.769Z,101359.16
2023-04-15T04:00:50.206Z,101355.00
2023-04-15T04:05:53.878Z,101365.03
2023-04-15T04:10:57.525Z,101369.50
2023-04-15T04:16:03.047Z,101374.34
2023-04-15T04:21:06.972Z,101381.38
2023-04-15T04:26:10.582Z,101392.75
2023-04-15T04:31:16.823Z,101402.03
2023-04-15T04:36:20.449Z,101405.81
2023-04-15T04:41:24.111Z,101408.75
2023-04-15T04:46:29.381Z,101415.84
2023-04-15T04:51:33.347Z,101438.75
2023-04-15T04:56:36.945Z,101437.09
2023-04-15T05:01:42.597Z,101446.00
2023-04-15T05:06:46.358Z,101448.72
2023-04-15T05:11:50.031Z,101442.88
2023-04-15T05:16:55.322Z,101448.97
2023-04-15T05:21:58.979Z,101447.19
2023-04-15T05:27:02.643Z,101452.56
2023-04-15T05:32:08.315Z,101461.56
2023-04-15T05:37:11.990Z,101460.91
2023-04-15T05:42:15.690Z,101458.41
2023-04-15T05:47:21.122Z,101448.97
2023-04-15T05:52:24.773Z,101456.00
2023-04-15T05:57:28.429Z,101462.94
2023-04-15T06:02:33.853Z,101462.19
2023-04-15T06:07:37.720Z,101467.59
2023-04-15T06:12:41.459Z,101470.16
2023-04-15T06:17:46.819Z,101477.09
2023-04-15T06:22:50.494Z,101477.19
2023-04-15T06:27:54.106Z,101483.31
2023-04-15T06:32:59.558Z,101481.72
2023-04-15T06:38:03.186Z,101480.97
2023-04-15T06:43:06.998Z,101483.47
2023-04-15T06:48:12.238Z,101485.13
2023-04-15T06:53:15.889Z,101489.56
2023-04-15T06:58:19.483Z,101487.19
2023-04-15T07:03:25.702Z,101495.00
2023-04-15T07:08:28.537Z,101494.25
2023-04-15T07:13:33.420Z,101496.84
2023-04-15T07:18:38.736Z,101495.16
2023-04-15T07:23:42.930Z,101496.88
2023-04-15T07:28:46.573Z,101504.72
2023-04-15T07:33:51.796Z,101512.59
2023-04-15T07:38:55.413Z,101510.06
2023-04-15T07:43:59.033Z,101517.91
2023-04-15T07:49:04.558Z,101518.78
2023-04-15T07:54:08.480Z,101523.16
2023-04-15T07:59:12.061Z,101529.28
2023-04-15T08:04:17.863Z,101524.94
2023-04-15T08:09:21.713Z,101519.72
2023-04-15T08:14:26.352Z,101531.91
2023-04-15T08:19:31.968Z,101531.13
2023-04-15T08:24:35.660Z,101530.25
2023-04-15T08:29:39.980Z,101538.13
2023-04-15T08:34:45.305Z,101523.41
2023-04-15T08:39:48.902Z,101520.75
2023-04-15T08:44:52.800Z,101518.16
2023-04-15T08:49:59.268Z,101518.19
2023-04-15T08:55:03.815Z,101516.44
2023-04-15T09:00:08.666Z,101513.84
2023-04-15T09:05:14.050Z,101518.19
2023-04-15T09:10:17.878Z,101515.59
2023-04-15T09:15:22.102Z,101523.41
2023-04-15T09:20:27.497Z,101519.97
2023-04-15T09:25:32.785Z,101521.69
2023-04-15T09:30:37.225Z,101519.13
2023-04-15T09:35:42.511Z,101522.59
2023-04-15T09:40:46.720Z,101521.69
2023-04-15T09:45:51.212Z,101526.97
2023-04-15T09:50:59.504Z,101529.59
2023-04-15T09:56:03.643Z,101531.34
2023-04-15T10:01:07.546Z,101530.53
2023-04-15T10:06:14.742Z,101530.53
2023-04-15T10:11:20.659Z,101527.94
2023-04-15T10:16:28.891Z,101530.50
2023-04-15T10:21:35.211Z,101534.00
2023-04-15T10:26:38.636Z,101528.81
2023-04-15T10:31:42.946Z,101539.25
2023-04-15T10:36:48.250Z,101543.59
2023-04-15T10:42:07.800Z,101529.72
2023-04-15T10:47:15.818Z,101532.31
2023-04-15T10:52:25.144Z,101524.50
2023-04-15T10:57:36.115Z,101517.56
2023-04-15T11:02:44.985Z,101537.53
2023-04-15T11:07:55.478Z,101543.59
2023-04-15T11:13:00.569Z,101545.34
2023-04-15T11:18:11.890Z,101552.31
2023-04-15T11:23:18.444Z,101557.50
2023-04-15T11:28:22.043Z,101556.63
2023-04-15T11:33:25.777Z,101554.91
2023-04-15T11:38:31.246Z,101562.69
2023-04-15T11:43:34.876Z,101556.59
2023-04-15T11:48:42.865Z,101570.47
2023-04-15T11:53:48.872Z,101578.25
2023-04-15T11:58:54.803Z,101570.44
2023-04-15T12:03:58.597Z,101573.91
2023-04-15T12:09:14.260Z,101584.31
2023-04-15T12:14:25.724Z,101590.38
2023-04-15T12:19:30.880Z,101596.44
2023-04-15T12:24:36.864Z,101604.22
2023-04-15T12:29:41.637Z,101603.34
2023-04-15T12:34:50.621Z,101603.34
2023-04-15T12:39:55.960Z,101600.72
2023-04-15T12:44:59.605Z,101609.41
2023-04-15T12:50:03.753Z,101611.13
2023-04-15T12:55:09.906Z,101617.19
2023-04-15T13:00:14.668Z,101618.06
2023-04-15T13:05:18.222Z,101618.09
2023-04-15T13:10:23.508Z,101612.91
2023-04-15T13:15:27.129Z,101619.00
2023-04-15T13:20:30.752Z,101620.75
2023-04-15T13:25:36.036Z,101626.88
2023-04-15T13:30:39.814Z,101630.34
2023-04-15T13:35:43.438Z,101640.75
2023-04-15T13:40:48.697Z,101646.84
2023-04-15T13:45:52.390Z,101652.91
2023-04-15T13:50:56.071Z,101663.31
2023-04-15T13:56:01.346Z,101673.69
2023-04-15T14:01:06.001Z,101683.22
2023-04-15T14:06:09.907Z,101698.00
2023-04-15T14:11:15.208Z,101692.75
2023-04-15T14:16:18.964Z,101713.63
2023-04-15T14:21:22.566Z,101716.22
2023-04-15T14:26:27.906Z,101711.84
2023-04-15T14:31:31.544Z,101722.22
2023-04-15T14:36:35.198Z,101727.47
2023-04-15T14:41:40.534Z,101742.25
2023-04-15T14:46:44.270Z,101737.00
2023-04-15T14:51:47.904Z,101749.16
2023-04-15T14:56:53.897Z,101751.72
2023-04-15T15:01:57.648Z,101754.28
2023-04-15T15:07:01.712Z,101757.72
2023-04-15T15:12:07.263Z,101765.50
2023-04-15T15:17:11.597Z,101775.00
2023-04-15T15:22:15.239Z,101776.69
2023-04-15T15:27:21.292Z,101787.00
2023-04-15T15:32:24.912Z,101786.94
2023-04-15T15:37:28.607Z,101790.09
2023-04-15T15:42:35.050Z,101803.44
2023-04-15T15:47:38.714Z,101805.78
2023-04-15T15:52:42.667Z,101800.41
2023-04-15T15:57:48.115Z,101807.00
2023-04-15T16:07:58.404Z,101796.16
2023-04-15T16:13:04.164Z,101798.06
2023-04-15T16:18:07.874Z,101802.41
2023-04-15T16:23:14.838Z,101797.16
2023-04-15T16:28:26.498Z,101793.19
2023-04-15T16:33:30.839Z,101788.25
2023-04-15T16:38:34.452Z,101793.88
2023-04-15T16:43:39.722Z,101796.00
2023-04-15T16:48:43.293Z,101804.28
2023-04-15T16:53:46.916Z,101804.19
2023-04-15T16:58:52.108Z,101807.81
2023-04-15T17:03:56.263Z,101792.94
2023-04-15T17:08:59.967Z,101798.50
2023-04-15T17:14:05.818Z,101784.16
2023-04-15T17:19:09.511Z,101785.50
2023-04-15T17:24:13.193Z,101788.72
2023-04-15T17:29:18.470Z,101792.84
2023-04-15T17:34:22.115Z,101796.44
2023-04-15T17:39:25.727Z,101795.03
2023-04-15T17:44:31.667Z,101796.56
2023-04-15T17:49:35.399Z,101804.56
2023-04-15T17:54:39.043Z,101812.69
2023-04-15T17:59:44.353Z,101803.19
2023-04-15T18:04:48.125Z,101806.09
2023-04-15T18:09:52.954Z,101813.44
2023-04-15T18:14:58.333Z,101815.38
2023-04-15T18:20:02.019Z,101822.78
2023-04-15T18:25:06.612Z,101807.63
2023-04-15T18:30:12.989Z,101818.34
2023-04-15T18:35:16.589Z,101807.44
2023-04-15T18:40:20.354Z,101806.25
2023-04-15T18:45:25.760Z,101794.31
2023-04-15T18:50:29.484Z,101795.91
2023-04-15T18:55:33.165Z,101794.53
2023-04-15T19:00:38.419Z,101797.22
2023-04-15T19:05:42.419Z,101783.16
2023-04-15T19:10:46.037Z,101792.34
2023-04-15T19:15:52.405Z,101774.97
2023-04-15T19:20:56.994Z,101785.13
2023-04-15T19:26:00.612Z,101780.91
2023-04-15T19:31:06.077Z,101780.56
2023-04-15T19:36:08.965Z,101775.56
2023-04-15T19:41:12.639Z,101770.06
2023-04-15T19:46:17.980Z,101774.53
2023-04-15T19:51:21.644Z,101787.41
2023-04-15T19:56:25.619Z,101766.53
2023-04-15T20:01:30.974Z,101772.78
2023-04-15T20:06:33.992Z,101768.63
2023-04-15T20:12:45.007Z,101770.34
2023-04-15T20:17:02.811Z,101760.75
2023-04-15T20:22:06.401Z,101752.03
2023-04-15T20:27:10.006Z,101752.56
2023-04-15T20:32:15.342Z,101758.44
2023-04-15T20:37:19.022Z,101758.84
2023-04-15T20:42:22.731Z,101748.69
2023-04-15T20:47:28.129Z,101749.94
2023-04-15T20:52:31.677Z,101744.63
2023-04-15T20:57:35.313Z,101733.97
2023-04-15T21:02:40.723Z,101734.88
2023-04-15T21:07:43.604Z,101730.00
2023-04-15T21:12:47.425Z,101737.25
2023-04-15T21:17:52.770Z,101738.59
2023-04-15T21:22:56.324Z,101738.47
2023-04-15T21:27:59.963Z,101739.66
2023-04-15T21:33:05.402Z,101740.94
2023-04-15T21:38:09.118Z,101738.16
2023-04-15T21:43:12.804Z,101749.34
2023-04-15T21:48:18.297Z,101741.59
2023-04-15T21:53:21.924Z,101728.25
2023-04-15T21:58:25.627Z,101732.94
2023-04-15T22:03:33.058Z,101726.47
2023-04-15T22:08:48.245Z,101714.78
2023-04-15T22:14:00.179Z,101713.41
2023-04-15T22:19:05.860Z,101699.88
2023-04-15T22:24:38.147Z,101699.59
2023-04-15T22:29:33.169Z,101692.84
2023-04-15T22:34:38.400Z,101687.91
2023-04-15T22:39:44.144Z,101687.72
2023-04-15T22:44:47.797Z,101670.28
2023-04-15T22:49:53.095Z,101679.53
2023-04-15T22:54:56.729Z,101659.91
2023-04-15T23:00:00.368Z,101657.19
2023-04-15T23:05:12.088Z,101653.59
2023-04-15T23:10:16.910Z,101648.72
2023-04-15T23:15:20.606Z,101645.94
2023-04-15T23:20:25.951Z,101637.03
2023-04-15T23:25:28.817Z,101644.06
2023-04-15T23:30:32.454Z,101642.53
2023-04-15T23:35:37.770Z,101650.81
2023-04-15T23:40:40.660Z,101639.06
2023-04-15T23:45:44.277Z,101639.81
2023-04-15T23:50:50.703Z,101638.09
2023-04-15T23:55:54.363Z,101633.13
